sensor_id;sensor_type;location;lat;lon;timestamp;P1;durP1;ratioP1;P2;durP2;ratioP2
19828;SDS011;10075;50.924;4.396;2023-07-22T00:00:58;12.15;;;8.63;;
19828;SDS011;10075;50.924;4.396;2023-07-22T00:03:25;13.27;;;9.30;;
19828;SDS011;10075;50.924;4.396;2023-07-22T00:06:02;11.85;;;9.02;;
19828;SDS011;10075;50.924;4.396;2023-07-22T00:08:30;12.43;;;8.98;;
19828;SDS011;10075;50.924;4.396;2023-07-22T00:10:59;11.40;;;8.60;;
19828;SDS011;10075;50.924;4.396;2023-07-22T00:13:26;11.30;;;8.57;;
19828;SDS011;10075;50.924;4.396;2023-07-22T00:15:53;14.23;;;8.95;;
19828;SDS011;10075;50.924;4.396;2023-07-22T00:18:20;11.30;;;8.85;;
19828;SDS011;10075;50.924;4.396;2023-07-22T00:20:49;13.35;;;9.40;;
19828;SDS011;10075;50.924;4.396;2023-07-22T00:23:16;11.90;;;8.90;;
19828;SDS011;10075;50.924;4.396;2023-07-22T00:25:44;13.40;;;9.32;;
19828;SDS011;10075;50.924;4.396;2023-07-22T00:28:13;14.48;;;8.30;;
19828;SDS011;10075;50.924;4.396;2023-07-22T00:30:40;14.98;;;8.88;;
19828;SDS011;10075;50.924;4.396;2023-07-22T00:33:07;12.10;;;9.05;;
19828;SDS011;10075;50.924;4.396;2023-07-22T00:35:34;12.80;;;8.82;;
19828;SDS011;10075;50.924;4.396;2023-07-22T00:38:02;13.48;;;9.00;;
19828;SDS011;10075;50.924;4.396;2023-07-22T00:40:29;10.93;;;8.40;;
19828;SDS011;10075;50.924;4.396;2023-07-22T00:42:57;10.88;;;8.85;;
19828;SDS011;10075;50.924;4.396;2023-07-22T00:45:26;12.23;;;8.63;;
19828;SDS011;10075;50.924;4.396;2023-07-22T00:47:53;11.55;;;9.20;;
19828;SDS011;10075;50.924;4.396;2023-07-22T00:50:20;11.93;;;8.20;;
19828;SDS011;10075;50.924;4.396;2023-07-22T00:52:50;12.00;;;9.13;;
19828;SDS011;10075;50.924;4.396;2023-07-22T00:55:17;15.30;;;9.82;;
19828;SDS011;10075;50.924;4.396;2023-07-22T00:57:44;13.50;;;9.00;;
19828;SDS011;10075;50.924;4.396;2023-07-22T01:00:12;14.05;;;9.23;;
19828;SDS011;10075;50.924;4.396;2023-07-22T01:02:42;13.38;;;9.68;;
19828;SDS011;10075;50.924;4.396;2023-07-22T01:05:11;12.05;;;9.10;;
19828;SDS011;10075;50.924;4.396;2023-07-22T01:07:39;15.88;;;9.70;;
19828;SDS011;10075;50.924;4.396;2023-07-22T01:10:06;19.05;;;9.48;;
19828;SDS011;10075;50.924;4.396;2023-07-22T01:12:34;14.38;;;9.82;;
19828;SDS011;10075;50.924;4.396;2023-07-22T01:15:01;12.98;;;9.77;;
19828;SDS011;10075;50.924;4.396;2023-07-22T01:17:32;13.95;;;9.27;;
19828;SDS011;10075;50.924;4.396;2023-07-22T01:20:01;15.50;;;10.18;;
19828;SDS011;10075;50.924;4.396;2023-07-22T01:22:28;13.55;;;9.55;;
19828;SDS011;10075;50.924;4.396;2023-07-22T01:24:57;14.77;;;9.98;;
19828;SDS011;10075;50.924;4.396;2023-07-22T01:27:25;16.25;;;10.05;;
19828;SDS011;10075;50.924;4.396;2023-07-22T01:29:52;12.35;;;9.23;;
19828;SDS011;10075;50.924;4.396;2023-07-22T01:32:19;11.88;;;8.98;;
19828;SDS011;10075;50.924;4.396;2023-07-22T01:34:46;13.50;;;8.98;;
19828;SDS011;10075;50.924;4.396;2023-07-22T01:37:13;11.80;;;9.40;;
19828;SDS011;10075;50.924;4.396;2023-07-22T01:39:40;14.02;;;9.52;;
19828;SDS011;10075;50.924;4.396;2023-07-22T01:42:08;13.68;;;9.25;;
19828;SDS011;10075;50.924;4.396;2023-07-22T01:44:35;20.52;;;9.55;;
19828;SDS011;10075;50.924;4.396;2023-07-22T01:47:02;14.18;;;9.52;;
19828;SDS011;10075;50.924;4.396;2023-07-22T01:49:29;15.10;;;9.90;;
19828;SDS011;10075;50.924;4.396;2023-07-22T01:51:56;14.82;;;10.27;;
19828;SDS011;10075;50.924;4.396;2023-07-22T01:54:23;18.10;;;10.05;;
19828;SDS011;10075;50.924;4.396;2023-07-22T01:56:50;16.45;;;11.10;;
19828;SDS011;10075;50.924;4.396;2023-07-22T01:59:18;13.88;;;10.68;;
19828;SDS011;10075;50.924;4.396;2023-07-22T02:01:45;16.45;;;10.50;;
19828;SDS011;10075;50.924;4.396;2023-07-22T02:04:12;18.25;;;11.00;;
19828;SDS011;10075;50.924;4.396;2023-07-22T02:06:39;15.15;;;10.63;;
19828;SDS011;10075;50.924;4.396;2023-07-22T02:09:06;14.32;;;10.82;;
19828;SDS011;10075;50.924;4.396;2023-07-22T02:11:34;16.88;;;11.15;;
19828;SDS011;10075;50.924;4.396;2023-07-22T02:14:01;12.68;;;9.80;;
19828;SDS011;10075;50.924;4.396;2023-07-22T02:16:33;16.67;;;11.13;;
19828;SDS011;10075;50.924;4.396;2023-07-22T02:19:00;14.45;;;11.07;;
19828;SDS011;10075;50.924;4.396;2023-07-22T02:21:28;17.08;;;10.82;;
19828;SDS011;10075;50.924;4.396;2023-07-22T02:23:55;15.50;;;11.07;;
19828;SDS011;10075;50.924;4.396;2023-07-22T02:26:22;19.42;;;11.07;;
19828;SDS011;10075;50.924;4.396;2023-07-22T02:28:49;19.65;;;12.32;;
19828;SDS011;10075;50.924;4.396;2023-07-22T02:31:16;20.08;;;12.18;;
19828;SDS011;10075;50.924;4.396;2023-07-22T02:33:44;19.65;;;11.35;;
19828;SDS011;10075;50.924;4.396;2023-07-22T02:36:12;16.08;;;10.48;;
19828;SDS011;10075;50.924;4.396;2023-07-22T02:38:38;15.60;;;11.00;;
19828;SDS011;10075;50.924;4.396;2023-07-22T02:41:05;15.73;;;11.70;;
19828;SDS011;10075;50.924;4.396;2023-07-22T02:43:33;16.70;;;10.60;;
19828;SDS011;10075;50.924;4.396;2023-07-22T02:46:01;15.90;;;11.18;;
19828;SDS011;10075;50.924;4.396;2023-07-22T02:48:29;16.55;;;11.35;;
19828;SDS011;10075;50.924;4.396;2023-07-22T02:51:02;20.90;;;11.40;;
19828;SDS011;10075;50.924;4.396;2023-07-22T02:53:30;14.77;;;10.25;;
19828;SDS011;10075;50.924;4.396;2023-07-22T02:55:57;17.30;;;10.90;;
19828;SDS011;10075;50.924;4.396;2023-07-22T02:58:25;16.13;;;11.35;;
19828;SDS011;10075;50.924;4.396;2023-07-22T03:00:52;17.05;;;11.60;;
19828;SDS011;10075;50.924;4.396;2023-07-22T03:03:19;17.38;;;11.05;;
19828;SDS011;10075;50.924;4.396;2023-07-22T03:05:45;19.70;;;12.15;;
19828;SDS011;10075;50.924;4.396;2023-07-22T03:08:15;21.10;;;12.00;;
19828;SDS011;10075;50.924;4.396;2023-07-22T03:10:43;16.80;;;11.70;;
19828;SDS011;10075;50.924;4.396;2023-07-22T03:13:13;17.35;;;11.77;;
19828;SDS011;10075;50.924;4.396;2023-07-22T03:15:40;18.92;;;12.23;;
19828;SDS011;10075;50.924;4.396;2023-07-22T03:18:07;19.45;;;12.25;;
19828;SDS011;10075;50.924;4.396;2023-07-22T03:20:35;20.85;;;12.32;;
19828;SDS011;10075;50.924;4.396;2023-07-22T03:23:02;19.17;;;12.45;;
19828;SDS011;10075;50.924;4.396;2023-07-22T03:25:31;16.95;;;11.77;;
19828;SDS011;10075;50.924;4.396;2023-07-22T03:27:59;21.23;;;12.15;;
19828;SDS011;10075;50.924;4.396;2023-07-22T03:30:28;21.58;;;12.98;;
19828;SDS011;10075;50.924;4.396;2023-07-22T03:32:55;18.27;;;12.38;;
19828;SDS011;10075;50.924;4.396;2023-07-22T03:35:22;19.02;;;12.00;;
19828;SDS011;10075;50.924;4.396;2023-07-22T03:37:49;21.17;;;12.75;;
19828;SDS011;10075;50.924;4.396;2023-07-22T03:40:16;26.05;;;13.38;;
19828;SDS011;10075;50.924;4.396;2023-07-22T03:42:46;24.25;;;12.98;;
19828;SDS011;10075;50.924;4.396;2023-07-22T03:45:13;20.60;;;12.75;;
19828;SDS011;10075;50.924;4.396;2023-07-22T03:47:40;21.27;;;13.57;;
19828;SDS011;10075;50.924;4.396;2023-07-22T03:50:07;22.65;;;13.88;;
19828;SDS011;10075;50.924;4.396;2023-07-22T03:52:35;23.08;;;14.10;;
19828;SDS011;10075;50.924;4.396;2023-07-22T03:55:02;20.95;;;13.02;;
19828;SDS011;10075;50.924;4.396;2023-07-22T03:57:30;21.35;;;14.40;;
19828;SDS011;10075;50.924;4.396;2023-07-22T03:59:59;30.10;;;14.25;;
19828;SDS011;10075;50.924;4.396;2023-07-22T04:02:26;23.20;;;14.13;;
19828;SDS011;10075;50.924;4.396;2023-07-22T04:04:53;24.92;;;14.30;;
19828;SDS011;10075;50.924;4.396;2023-07-22T04:07:21;23.55;;;13.60;;
19828;SDS011;10075;50.924;4.396;2023-07-22T04:09:48;24.00;;;14.38;;
19828;SDS011;10075;50.924;4.396;2023-07-22T04:12:15;21.35;;;13.15;;
19828;SDS011;10075;50.924;4.396;2023-07-22T04:14:42;23.20;;;13.18;;
19828;SDS011;10075;50.924;4.396;2023-07-22T04:17:10;22.92;;;14.23;;
19828;SDS011;10075;50.924;4.396;2023-07-22T04:19:37;22.52;;;13.13;;
19828;SDS011;10075;50.924;4.396;2023-07-22T04:22:04;23.27;;;13.45;;
19828;SDS011;10075;50.924;4.396;2023-07-22T04:24:32;22.98;;;13.43;;
19828;SDS011;10075;50.924;4.396;2023-07-22T04:27:00;25.75;;;14.10;;
19828;SDS011;10075;50.924;4.396;2023-07-22T04:29:27;19.50;;;12.65;;
19828;SDS011;10075;50.924;4.396;2023-07-22T04:31:56;26.33;;;12.77;;
19828;SDS011;10075;50.924;4.396;2023-07-22T04:34:25;19.77;;;12.40;;
19828;SDS011;10075;50.924;4.396;2023-07-22T04:36:55;21.65;;;12.85;;
19828;SDS011;10075;50.924;4.396;2023-07-22T04:39:22;25.38;;;14.05;;
19828;SDS011;10075;50.924;4.396;2023-07-22T04:41:49;22.55;;;12.43;;
19828;SDS011;10075;50.924;4.396;2023-07-22T04:44:16;21.52;;;12.55;;
19828;SDS011;10075;50.924;4.396;2023-07-22T04:46:44;24.80;;;14.13;;
19828;SDS011;10075;50.924;4.396;2023-07-22T04:49:11;20.17;;;12.20;;
19828;SDS011;10075;50.924;4.396;2023-07-22T04:51:39;21.00;;;12.60;;
19828;SDS011;10075;50.924;4.396;2023-07-22T04:54:06;26.23;;;13.00;;
19828;SDS011;10075;50.924;4.396;2023-07-22T04:56:33;21.55;;;13.27;;
19828;SDS011;10075;50.924;4.396;2023-07-22T04:59:00;19.05;;;13.02;;
19828;SDS011;10075;50.924;4.396;2023-07-22T05:01:28;22.92;;;13.27;;
19828;SDS011;10075;50.924;4.396;2023-07-22T05:03:55;21.55;;;12.13;;
19828;SDS011;10075;50.924;4.396;2023-07-22T05:06:23;24.83;;;12.52;;
19828;SDS011;10075;50.924;4.396;2023-07-22T05:08:51;22.08;;;12.00;;
19828;SDS011;10075;50.924;4.396;2023-07-22T05:11:18;19.65;;;13.10;;
19828;SDS011;10075;50.924;4.396;2023-07-22T05:13:45;24.40;;;13.32;;
19828;SDS011;10075;50.924;4.396;2023-07-22T05:16:12;21.52;;;13.10;;
19828;SDS011;10075;50.924;4.396;2023-07-22T05:18:39;21.10;;;12.38;;
19828;SDS011;10075;50.924;4.396;2023-07-22T05:21:06;21.35;;;11.88;;
19828;SDS011;10075;50.924;4.396;2023-07-22T05:23:33;19.35;;;11.63;;
19828;SDS011;10075;50.924;4.396;2023-07-22T05:26:01;25.63;;;12.15;;
19828;SDS011;10075;50.924;4.396;2023-07-22T05:28:28;23.63;;;11.77;;
19828;SDS011;10075;50.924;4.396;2023-07-22T05:30:55;21.70;;;11.77;;
19828;SDS011;10075;50.924;4.396;2023-07-22T05:33:22;19.02;;;11.35;;
19828;SDS011;10075;50.924;4.396;2023-07-22T05:35:49;21.25;;;11.27;;
19828;SDS011;10075;50.924;4.396;2023-07-22T05:38:16;18.92;;;10.95;;
19828;SDS011;10075;50.924;4.396;2023-07-22T05:40:43;16.45;;;10.40;;
19828;SDS011;10075;50.924;4.396;2023-07-22T05:43:12;16.73;;;10.23;;
19828;SDS011;10075;50.924;4.396;2023-07-22T05:45:39;16.92;;;10.60;;
19828;SDS011;10075;50.924;4.396;2023-07-22T05:48:05;19.73;;;10.27;;
19828;SDS011;10075;50.924;4.396;2023-07-22T05:50:32;22.30;;;11.27;;
19828;SDS011;10075;50.924;4.396;2023-07-22T05:52:59;18.17;;;10.57;;
19828;SDS011;10075;50.924;4.396;2023-07-22T05:55:26;17.00;;;10.77;;
19828;SDS011;10075;50.924;4.396;2023-07-22T05:57:53;18.58;;;10.35;;
19828;SDS011;10075;50.924;4.396;2023-07-22T06:00:22;19.17;;;10.43;;
19828;SDS011;10075;50.924;4.396;2023-07-22T06:02:49;17.52;;;9.98;;
19828;SDS011;10075;50.924;4.396;2023-07-22T06:05:16;17.55;;;9.35;;
19828;SDS011;10075;50.924;4.396;2023-07-22T06:07:43;20.63;;;10.07;;
19828;SDS011;10075;50.924;4.396;2023-07-22T06:10:10;17.88;;;8.85;;
19828;SDS011;10075;50.924;4.396;2023-07-22T06:12:37;13.88;;;8.68;;
19828;SDS011;10075;50.924;4.396;2023-07-22T06:15:04;19.00;;;9.82;;
19828;SDS011;10075;50.924;4.396;2023-07-22T06:17:33;16.77;;;8.65;;
19828;SDS011;10075;50.924;4.396;2023-07-22T06:20:00;15.23;;;9.43;;
19828;SDS011;10075;50.924;4.396;2023-07-22T06:22:27;15.00;;;9.00;;
19828;SDS011;10075;50.924;4.396;2023-07-22T06:24:54;16.65;;;8.40;;
19828;SDS011;10075;50.924;4.396;2023-07-22T06:27:21;18.40;;;8.70;;
19828;SDS011;10075;50.924;4.396;2023-07-22T06:29:48;16.70;;;8.48;;
19828;SDS011;10075;50.924;4.396;2023-07-22T06:32:15;16.88;;;8.20;;
19828;SDS011;10075;50.924;4.396;2023-07-22T06:34:43;14.20;;;8.35;;
19828;SDS011;10075;50.924;4.396;2023-07-22T06:37:10;14.95;;;8.02;;
19828;SDS011;10075;50.924;4.396;2023-07-22T06:39:37;16.85;;;8.85;;
19828;SDS011;10075;50.924;4.396;2023-07-22T06:42:04;16.15;;;8.30;;
19828;SDS011;10075;50.924;4.396;2023-07-22T06:44:31;19.00;;;7.75;;
19828;SDS011;10075;50.924;4.396;2023-07-22T06:46:58;14.05;;;8.43;;
19828;SDS011;10075;50.924;4.396;2023-07-22T06:49:25;15.38;;;8.27;;
19828;SDS011;10075;50.924;4.396;2023-07-22T06:51:54;17.33;;;8.10;;
19828;SDS011;10075;50.924;4.396;2023-07-22T06:54:21;15.02;;;7.97;;
19828;SDS011;10075;50.924;4.396;2023-07-22T06:56:48;14.27;;;8.05;;
19828;SDS011;10075;50.924;4.396;2023-07-22T06:59:14;13.65;;;7.90;;
19828;SDS011;10075;50.924;4.396;2023-07-22T07:01:41;12.68;;;8.02;;
19828;SDS011;10075;50.924;4.396;2023-07-22T07:04:08;13.40;;;7.57;;
19828;SDS011;10075;50.924;4.396;2023-07-22T07:06:35;15.35;;;7.82;;
19828;SDS011;10075;50.924;4.396;2023-07-22T07:09:04;16.38;;;7.85;;
19828;SDS011;10075;50.924;4.396;2023-07-22T07:11:31;13.45;;;8.10;;
19828;SDS011;10075;50.924;4.396;2023-07-22T07:13:58;11.45;;;7.38;;
19828;SDS011;10075;50.924;4.396;2023-07-22T07:16:25;15.95;;;7.15;;
19828;SDS011;10075;50.924;4.396;2023-07-22T07:18:53;14.32;;;8.07;;
19828;SDS011;10075;50.924;4.396;2023-07-22T07:21:21;12.38;;;7.00;;
19828;SDS011;10075;50.924;4.396;2023-07-22T07:23:48;12.68;;;6.47;;
19828;SDS011;10075;50.924;4.396;2023-07-22T07:26:18;15.20;;;7.13;;
19828;SDS011;10075;50.924;4.396;2023-07-22T07:28:46;10.40;;;6.93;;
19828;SDS011;10075;50.924;4.396;2023-07-22T07:31:13;13.48;;;6.78;;
19828;SDS011;10075;50.924;4.396;2023-07-22T07:33:40;14.32;;;6.32;;
19828;SDS011;10075;50.924;4.396;2023-07-22T07:36:07;13.95;;;6.82;;
19828;SDS011;10075;50.924;4.396;2023-07-22T07:38:34;14.05;;;7.53;;
19828;SDS011;10075;50.924;4.396;2023-07-22T07:41:02;12.65;;;7.22;;
19828;SDS011;10075;50.924;4.396;2023-07-22T07:43:31;13.30;;;6.30;;
19828;SDS011;10075;50.924;4.396;2023-07-22T07:46:17;15.73;;;7.05;;
19828;SDS011;10075;50.924;4.396;2023-07-22T07:48:47;14.00;;;6.57;;
19828;SDS011;10075;50.924;4.396;2023-07-22T07:51:15;14.00;;;7.30;;
19828;SDS011;10075;50.924;4.396;2023-07-22T07:53:43;16.77;;;6.88;;
19828;SDS011;10075;50.924;4.396;2023-07-22T07:56:12;10.30;;;6.90;;
19828;SDS011;10075;50.924;4.396;2023-07-22T07:58:41;17.33;;;7.30;;
19828;SDS011;10075;50.924;4.396;2023-07-22T08:01:08;12.75;;;6.82;;
19828;SDS011;10075;50.924;4.396;2023-07-22T08:03:36;14.45;;;6.70;;
19828;SDS011;10075;50.924;4.396;2023-07-22T08:06:04;14.13;;;6.10;;
19828;SDS011;10075;50.924;4.396;2023-07-22T08:08:32;12.05;;;6.15;;
19828;SDS011;10075;50.924;4.396;2023-07-22T08:10:59;11.27;;;6.10;;
19828;SDS011;10075;50.924;4.396;2023-07-22T08:13:26;10.77;;;6.50;;
19828;SDS011;10075;50.924;4.396;2023-07-22T08:15:56;8.43;;;5.03;;
19828;SDS011;10075;50.924;4.396;2023-07-22T08:18:23;12.95;;;6.10;;
19828;SDS011;10075;50.924;4.396;2023-07-22T08:20:51;14.05;;;6.45;;
19828;SDS011;10075;50.924;4.396;2023-07-22T08:23:18;9.25;;;4.95;;
19828;SDS011;10075;50.924;4.396;2023-07-22T08:25:45;11.70;;;4.72;;
19828;SDS011;10075;50.924;4.396;2023-07-22T08:28:12;10.25;;;5.10;;
19828;SDS011;10075;50.924;4.396;2023-07-22T08:30:39;10.10;;;4.35;;
19828;SDS011;10075;50.924;4.396;2023-07-22T08:33:09;10.25;;;4.03;;
19828;SDS011;10075;50.924;4.396;2023-07-22T08:35:36;6.78;;;4.10;;
19828;SDS011;10075;50.924;4.396;2023-07-22T08:38:04;8.10;;;3.95;;
19828;SDS011;10075;50.924;4.396;2023-07-22T08:40:34;7.05;;;3.55;;
19828;SDS011;10075;50.924;4.396;2023-07-22T08:43:01;8.13;;;4.05;;
19828;SDS011;10075;50.924;4.396;2023-07-22T08:45:30;9.80;;;4.20;;
19828;SDS011;10075;50.924;4.396;2023-07-22T08:47:59;8.40;;;3.47;;
19828;SDS011;10075;50.924;4.396;2023-07-22T08:50:34;9.77;;;3.65;;
19828;SDS011;10075;50.924;4.396;2023-07-22T08:53:05;9.60;;;3.53;;
19828;SDS011;10075;50.924;4.396;2023-07-22T08:55:32;7.57;;;3.35;;
19828;SDS011;10075;50.924;4.396;2023-07-22T08:58:01;9.57;;;3.05;;
19828;SDS011;10075;50.924;4.396;2023-07-22T09:00:29;5.82;;;3.08;;
19828;SDS011;10075;50.924;4.396;2023-07-22T09:02:56;5.32;;;3.42;;
19828;SDS011;10075;50.924;4.396;2023-07-22T09:05:24;7.75;;;3.58;;
19828;SDS011;10075;50.924;4.396;2023-07-22T09:07:53;7.75;;;3.45;;
19828;SDS011;10075;50.924;4.396;2023-07-22T09:10:21;8.55;;;3.35;;
19828;SDS011;10075;50.924;4.396;2023-07-22T09:12:51;8.18;;;3.40;;
19828;SDS011;10075;50.924;4.396;2023-07-22T09:15:18;6.57;;;3.15;;
19828;SDS011;10075;50.924;4.396;2023-07-22T09:17:46;8.57;;;3.20;;
19828;SDS011;10075;50.924;4.396;2023-07-22T09:20:13;8.10;;;3.55;;
19828;SDS011;10075;50.924;4.396;2023-07-22T09:22:42;10.23;;;3.20;;
19828;SDS011;10075;50.924;4.396;2023-07-22T09:25:15;9.50;;;3.70;;
19828;SDS011;10075;50.924;4.396;2023-07-22T09:27:44;7.53;;;3.25;;
19828;SDS011;10075;50.924;4.396;2023-07-22T09:30:21;6.97;;;3.25;;
19828;SDS011;10075;50.924;4.396;2023-07-22T09:32:49;3.50;;;2.20;;
19828;SDS011;10075;50.924;4.396;2023-07-22T09:35:16;5.18;;;2.90;;
19828;SDS011;10075;50.924;4.396;2023-07-22T09:37:43;8.25;;;3.10;;
19828;SDS011;10075;50.924;4.396;2023-07-22T09:40:16;5.95;;;2.55;;
19828;SDS011;10075;50.924;4.396;2023-07-22T09:42:48;4.60;;;2.22;;
19828;SDS011;10075;50.924;4.396;2023-07-22T09:45:16;4.30;;;2.20;;
19828;SDS011;10075;50.924;4.396;2023-07-22T09:47:44;5.32;;;2.28;;
19828;SDS011;10075;50.924;4.396;2023-07-22T09:50:13;5.78;;;2.40;;
19828;SDS011;10075;50.924;4.396;2023-07-22T09:52:51;14.77;;;2.40;;
19828;SDS011;10075;50.924;4.396;2023-07-22T09:55:21;4.85;;;1.95;;
19828;SDS011;10075;50.924;4.396;2023-07-22T09:57:51;4.53;;;2.38;;
19828;SDS011;10075;50.924;4.396;2023-07-22T10:00:20;5.22;;;2.40;;
19828;SDS011;10075;50.924;4.396;2023-07-22T10:02:51;4.15;;;1.90;;
19828;SDS011;10075;50.924;4.396;2023-07-22T10:05:19;3.40;;;1.90;;
19828;SDS011;10075;50.924;4.396;2023-07-22T10:07:47;3.08;;;2.05;;
19828;SDS011;10075;50.924;4.396;2023-07-22T10:10:16;5.45;;;2.13;;
19828;SDS011;10075;50.924;4.396;2023-07-22T10:12:45;4.43;;;2.13;;
19828;SDS011;10075;50.924;4.396;2023-07-22T10:15:13;4.75;;;2.03;;
19828;SDS011;10075;50.924;4.396;2023-07-22T10:17:43;4.57;;;2.10;;
19828;SDS011;10075;50.924;4.396;2023-07-22T10:20:11;4.78;;;1.98;;
19828;SDS011;10075;50.924;4.396;2023-07-22T10:22:41;2.78;;;1.98;;
19828;SDS011;10075;50.924;4.396;2023-07-22T10:25:10;4.40;;;2.08;;
19828;SDS011;10075;50.924;4.396;2023-07-22T10:27:39;4.70;;;1.80;;
19828;SDS011;10075;50.924;4.396;2023-07-22T10:30:08;5.72;;;2.00;;
19828;SDS011;10075;50.924;4.396;2023-07-22T10:32:37;4.13;;;1.65;;
19828;SDS011;10075;50.924;4.396;2023-07-22T10:35:08;1.80;;;1.48;;
19828;SDS011;10075;50.924;4.396;2023-07-22T10:37:38;3.75;;;1.45;;
19828;SDS011;10075;50.924;4.396;2023-07-22T10:40:17;5.65;;;1.60;;
19828;SDS011;10075;50.924;4.396;2023-07-22T10:42:51;4.40;;;1.85;;
19828;SDS011;10075;50.924;4.396;2023-07-22T10:45:27;5.20;;;1.90;;
19828;SDS011;10075;50.924;4.396;2023-07-22T10:48:02;4.00;;;1.60;;
19828;SDS011;10075;50.924;4.396;2023-07-22T10:50:41;4.43;;;1.50;;
19828;SDS011;10075;50.924;4.396;2023-07-22T10:53:09;3.30;;;1.50;;
19828;SDS011;10075;50.924;4.396;2023-07-22T10:58:59;4.32;;;1.80;;
19828;SDS011;10075;50.924;4.396;2023-07-22T11:01:33;2.92;;;1.70;;
19828;SDS011;10075;50.924;4.396;2023-07-22T11:06:57;3.72;;;1.70;;
19828;SDS011;10075;50.924;4.396;2023-07-22T11:09:37;3.95;;;1.88;;
19828;SDS011;10075;50.924;4.396;2023-07-22T11:12:08;2.65;;;1.60;;
19828;SDS011;10075;50.924;4.396;2023-07-22T11:14:38;4.07;;;1.50;;
19828;SDS011;10075;50.924;4.396;2023-07-22T11:17:08;5.50;;;1.40;;
19828;SDS011;10075;50.924;4.396;2023-07-22T11:19:36;3.92;;;2.08;;
19828;SDS011;10075;50.924;4.396;2023-07-22T11:22:04;3.47;;;1.90;;
19828;SDS011;10075;50.924;4.396;2023-07-22T11:24:32;2.70;;;1.60;;
19828;SDS011;10075;50.924;4.396;2023-07-22T11:27:01;5.30;;;2.10;;
19828;SDS011;10075;50.924;4.396;2023-07-22T11:29:29;4.40;;;1.85;;
19828;SDS011;10075;50.924;4.396;2023-07-22T11:31:56;2.88;;;1.77;;
19828;SDS011;10075;50.924;4.396;2023-07-22T11:34:25;2.72;;;1.67;;
19828;SDS011;10075;50.924;4.396;2023-07-22T11:36:53;3.65;;;1.80;;
19828;SDS011;10075;50.924;4.396;2023-07-22T11:39:20;3.75;;;1.80;;
19828;SDS011;10075;50.924;4.396;2023-07-22T11:41:49;4.50;;;1.80;;
19828;SDS011;10075;50.924;4.396;2023-07-22T11:44:17;4.15;;;1.92;;
19828;SDS011;10075;50.924;4.396;2023-07-22T11:46:51;3.58;;;1.50;;
19828;SDS011;10075;50.924;4.396;2023-07-22T11:49:27;2.10;;;1.67;;
19828;SDS011;10075;50.924;4.396;2023-07-22T11:51:56;2.53;;;1.70;;
19828;SDS011;10075;50.924;4.396;2023-07-22T11:54:24;4.07;;;1.55;;
19828;SDS011;10075;50.924;4.396;2023-07-22T11:56:51;4.50;;;1.83;;
19828;SDS011;10075;50.924;4.396;2023-07-22T11:59:31;3.22;;;1.70;;
19828;SDS011;10075;50.924;4.396;2023-07-22T12:01:59;2.92;;;1.77;;
19828;SDS011;10075;50.924;4.396;2023-07-22T12:04:28;4.60;;;1.92;;
19828;SDS011;10075;50.924;4.396;2023-07-22T12:06:55;4.75;;;1.92;;
19828;SDS011;10075;50.924;4.396;2023-07-22T12:09:22;3.30;;;1.73;;
19828;SDS011;10075;50.924;4.396;2023-07-22T12:11:54;4.82;;;1.60;;
19828;SDS011;10075;50.924;4.396;2023-07-22T12:14:23;5.75;;;1.80;;
19828;SDS011;10075;50.924;4.396;2023-07-22T12:16:52;4.38;;;1.92;;
19828;SDS011;10075;50.924;4.396;2023-07-22T12:19:22;4.15;;;2.22;;
19828;SDS011;10075;50.924;4.396;2023-07-22T12:21:50;6.22;;;1.63;;
19828;SDS011;10075;50.924;4.396;2023-07-22T12:24:17;2.92;;;1.67;;
19828;SDS011;10075;50.924;4.396;2023-07-22T12:26:44;4.50;;;1.80;;
19828;SDS011;10075;50.924;4.396;2023-07-22T12:29:11;2.45;;;1.60;;
19828;SDS011;10075;50.924;4.396;2023-07-22T12:31:38;2.88;;;1.33;;
19828;SDS011;10075;50.924;4.396;2023-07-22T12:34:05;4.30;;;1.75;;
19828;SDS011;10075;50.924;4.396;2023-07-22T12:36:32;2.88;;;1.50;;
19828;SDS011;10075;50.924;4.396;2023-07-22T12:39:00;5.43;;;1.58;;
19828;SDS011;10075;50.924;4.396;2023-07-22T12:41:27;2.90;;;1.70;;
19828;SDS011;10075;50.924;4.396;2023-07-22T12:43:54;9.60;;;2.20;;
19828;SDS011;10075;50.924;4.396;2023-07-22T12:46:21;4.10;;;1.60;;
19828;SDS011;10075;50.924;4.396;2023-07-22T12:48:49;6.75;;;1.83;;
19828;SDS011;10075;50.924;4.396;2023-07-22T12:51:15;3.65;;;1.33;;
19828;SDS011;10075;50.924;4.396;2023-07-22T12:53:42;3.28;;;1.58;;
19828;SDS011;10075;50.924;4.396;2023-07-22T12:56:11;2.60;;;1.30;;
19828;SDS011;10075;50.924;4.396;2023-07-22T12:58:38;3.42;;;1.60;;
19828;SDS011;10075;50.924;4.396;2023-07-22T13:01:04;2.72;;;1.73;;
19828;SDS011;10075;50.924;4.396;2023-07-22T13:03:32;9.32;;;1.95;;
19828;SDS011;10075;50.924;4.396;2023-07-22T13:05:59;2.47;;;1.60;;
19828;SDS011;10075;50.924;4.396;2023-07-22T13:08:26;4.05;;;1.63;;
19828;SDS011;10075;50.924;4.396;2023-07-22T13:10:53;4.72;;;1.70;;
19828;SDS011;10075;50.924;4.396;2023-07-22T13:13:21;3.17;;;1.67;;
19828;SDS011;10075;50.924;4.396;2023-07-22T13:15:48;2.08;;;1.38;;
19828;SDS011;10075;50.924;4.396;2023-07-22T13:18:15;3.33;;;1.50;;
19828;SDS011;10075;50.924;4.396;2023-07-22T13:20:42;3.97;;;1.77;;
19828;SDS011;10075;50.924;4.396;2023-07-22T13:23:09;3.40;;;1.88;;
19828;SDS011;10075;50.924;4.396;2023-07-22T13:25:36;5.57;;;1.90;;
19828;SDS011;10075;50.924;4.396;2023-07-22T13:28:03;3.80;;;1.80;;
19828;SDS011;10075;50.924;4.396;2023-07-22T13:30:31;2.03;;;1.50;;
19828;SDS011;10075;50.924;4.396;2023-07-22T13:32:58;2.85;;;1.80;;
19828;SDS011;10075;50.924;4.396;2023-07-22T13:35:25;4.70;;;1.70;;
19828;SDS011;10075;50.924;4.396;2023-07-22T13:37:52;4.10;;;1.75;;
19828;SDS011;10075;50.924;4.396;2023-07-22T13:40:19;2.28;;;1.75;;
19828;SDS011;10075;50.924;4.396;2023-07-22T13:42:47;3.10;;;1.83;;
19828;SDS011;10075;50.924;4.396;2023-07-22T13:45:14;2.75;;;1.85;;
19828;SDS011;10075;50.924;4.396;2023-07-22T13:47:42;5.32;;;1.85;;
19828;SDS011;10075;50.924;4.396;2023-07-22T13:50:09;2.95;;;1.70;;
19828;SDS011;10075;50.924;4.396;2023-07-22T13:52:36;3.63;;;2.00;;
19828;SDS011;10075;50.924;4.396;2023-07-22T13:55:03;3.35;;;1.77;;
19828;SDS011;10075;50.924;4.396;2023-07-22T13:57:31;4.60;;;1.73;;
19828;SDS011;10075;50.924;4.396;2023-07-22T13:59:58;3.47;;;1.85;;
19828;SDS011;10075;50.924;4.396;2023-07-22T14:02:25;3.65;;;1.77;;
19828;SDS011;10075;50.924;4.396;2023-07-22T14:04:53;4.95;;;1.88;;
19828;SDS011;10075;50.924;4.396;2023-07-22T14:07:20;9.15;;;1.77;;
19828;SDS011;10075;50.924;4.396;2023-07-22T14:09:47;7.40;;;2.30;;
19828;SDS011;10075;50.924;4.396;2023-07-22T14:12:14;4.57;;;1.92;;
19828;SDS011;10075;50.924;4.396;2023-07-22T14:14:40;6.97;;;1.90;;
19828;SDS011;10075;50.924;4.396;2023-07-22T14:17:07;6.60;;;1.83;;
19828;SDS011;10075;50.924;4.396;2023-07-22T14:19:34;3.20;;;2.05;;
19828;SDS011;10075;50.924;4.396;2023-07-22T14:22:03;5.25;;;2.03;;
19828;SDS011;10075;50.924;4.396;2023-07-22T14:24:30;5.28;;;1.92;;
19828;SDS011;10075;50.924;4.396;2023-07-22T14:26:57;4.70;;;1.75;;
19828;SDS011;10075;50.924;4.396;2023-07-22T14:29:24;3.25;;;1.80;;
19828;SDS011;10075;50.924;4.396;2023-07-22T14:31:51;3.17;;;1.88;;
19828;SDS011;10075;50.924;4.396;2023-07-22T14:34:18;6.20;;;2.20;;
19828;SDS011;10075;50.924;4.396;2023-07-22T14:36:45;3.05;;;1.70;;
19828;SDS011;10075;50.924;4.396;2023-07-22T14:39:13;6.82;;;2.15;;
19828;SDS011;10075;50.924;4.396;2023-07-22T14:41:40;6.25;;;1.67;;
19828;SDS011;10075;50.924;4.396;2023-07-22T14:44:08;5.25;;;1.60;;
19828;SDS011;10075;50.924;4.396;2023-07-22T14:46:35;3.42;;;1.73;;